sensor_id;sensor_type;location;lat;lon;timestamp;pressure;altitude;pressure_sealevel;temperature;humidity
67397;BME280;57728;50.448;18.824;2022-07-06T00:01:34;98062.56;;;16.65;78.87
67397;BME280;57728;50.448;18.824;2022-07-06T00:03:35;98063.84;;;16.68;78.61
67397;BME280;57728;50.448;18.824;2022-07-06T00:05:37;98061.44;;;16.66;78.31
67397;BME280;57728;50.448;18.824;2022-07-06T00:07:53;98056.66;;;16.63;78.50
67397;BME280;57728;50.448;18.824;2022-07-06T00:09:55;98051.22;;;16.63;78.60
67397;BME280;57728;50.448;18.824;2022-07-06T00:11:57;98050.38;;;16.63;78.57
67397;BME280;57728;50.448;18.824;2022-07-06T00:13:58;98048.31;;;16.60;77.87
67397;BME280;57728;50.448;18.824;2022-07-06T00:16:02;98056.78;;;16.58;78.66
67397;BME280;57728;50.448;18.824;2022-07-06T00:18:07;98061.44;;;16.58;78.64
67397;BME280;57728;50.448;18.824;2022-07-06T00:20:08;98058.72;;;16.58;78.08
67397;BME280;57728;50.448;18.824;2022-07-06T00:22:10;98058.41;;;16.59;78.08
67397;BME280;57728;50.448;18.824;2022-07-06T00:24:12;98062.72;;;16.60;78.67
67397;BME280;57728;50.448;18.824;2022-07-06T00:26:14;98055.38;;;16.61;78.31
67397;BME280;57728;50.448;18.824;2022-07-06T00:28:16;98066.56;;;16.59;77.83
67397;BME280;57728;50.448;18.824;2022-07-06T00:30:18;98067.38;;;16.60;77.72
67397;BME280;57728;50.448;18.824;2022-07-06T00:32:19;98066.88;;;16.58;78.23
67397;BME280;57728;50.448;18.824;2022-07-06T00:34:21;98072.00;;;16.59;78.20
67397;BME280;57728;50.448;18.824;2022-07-06T00:36:23;98059.03;;;16.56;78.10
67397;BME280;57728;50.448;18.824;2022-07-06T00:38:24;98066.06;;;16.57;78.10
67397;BME280;57728;50.448;18.824;2022-07-06T00:40:25;98069.44;;;16.54;78.06
67397;BME280;57728;50.448;18.824;2022-07-06T00:42:28;98067.66;;;16.49;77.96
67397;BME280;57728;50.448;18.824;2022-07-06T00:44:29;98068.63;;;16.45;78.19
67397;BME280;57728;50.448;18.824;2022-07-06T00:46:31;98064.59;;;16.42;78.49
67397;BME280;57728;50.448;18.824;2022-07-06T00:48:34;98062.22;;;16.41;78.34
67397;BME280;57728;50.448;18.824;2022-07-06T00:50:35;98063.00;;;16.41;78.48
67397;BME280;57728;50.448;18.824;2022-07-06T00:52:37;98059.16;;;16.42;78.71
67397;BME280;57728;50.448;18.824;2022-07-06T00:54:41;98057.56;;;16.41;78.08
67397;BME280;57728;50.448;18.824;2022-07-06T00:56:43;98055.66;;;16.42;78.38
67397;BME280;57728;50.448;18.824;2022-07-06T00:58:45;98043.97;;;16.41;78.23
67397;BME280;57728;50.448;18.824;2022-07-06T01:00:47;98041.09;;;16.38;78.07
67397;BME280;57728;50.448;18.824;2022-07-06T01:02:48;98050.84;;;16.39;78.46
67397;BME280;57728;50.448;18.824;2022-07-06T01:04:49;98045.72;;;16.37;78.38
67397;BME280;57728;50.448;18.824;2022-07-06T01:06:52;98048.78;;;16.36;78.32
67397;BME280;57728;50.448;18.824;2022-07-06T01:08:54;98055.03;;;16.36;77.96
67397;BME280;57728;50.448;18.824;2022-07-06T01:10:56;98047.66;;;16.37;77.96
67397;BME280;57728;50.448;18.824;2022-07-06T01:13:00;98048.78;;;16.36;78.12
67397;BME280;57728;50.448;18.824;2022-07-06T01:15:06;98052.47;;;16.31;77.63
67397;BME280;57728;50.448;18.824;2022-07-06T01:17:10;98048.78;;;16.27;77.52
67397;BME280;57728;50.448;18.824;2022-07-06T01:19:11;98049.88;;;16.26;78.06
67397;BME280;57728;50.448;18.824;2022-07-06T01:21:14;98052.38;;;16.22;77.90
67397;BME280;57728;50.448;18.824;2022-07-06T01:23:16;98045.97;;;16.18;78.06
67397;BME280;57728;50.448;18.824;2022-07-06T01:25:19;98042.78;;;16.16;78.50
67397;BME280;57728;50.448;18.824;2022-07-06T01:27:21;98046.94;;;16.14;78.48
67397;BME280;57728;50.448;18.824;2022-07-06T01:29:26;98042.13;;;16.11;78.07
67397;BME280;57728;50.448;18.824;2022-07-06T01:31:31;98044.69;;;16.07;78.33
67397;BME280;57728;50.448;18.824;2022-07-06T01:33:33;98043.41;;;16.05;78.11
67397;BME280;57728;50.448;18.824;2022-07-06T01:35:38;98046.44;;;16.03;78.30
67397;BME280;57728;50.448;18.824;2022-07-06T01:37:41;98042.59;;;16.04;78.50
67397;BME280;57728;50.448;18.824;2022-07-06T01:39:42;98035.25;;;16.05;78.82
67397;BME280;57728;50.448;18.824;2022-07-06T01:41:44;98038.13;;;16.08;78.25
67397;BME280;57728;50.448;18.824;2022-07-06T01:43:46;98037.50;;;16.11;78.19
67397;BME280;57728;50.448;18.824;2022-07-06T01:45:47;98043.75;;;16.12;77.68
67397;BME280;57728;50.448;18.824;2022-07-06T01:47:50;98041.03;;;16.12;78.23
67397;BME280;57728;50.448;18.824;2022-07-06T01:49:52;98045.16;;;16.09;77.93
67397;BME280;57728;50.448;18.824;2022-07-06T01:51:55;98043.06;;;16.06;78.08
67397;BME280;57728;50.448;18.824;2022-07-06T01:53:58;98035.72;;;16.07;78.12
67397;BME280;57728;50.448;18.824;2022-07-06T01:56:00;98033.66;;;16.04;77.67
67397;BME280;57728;50.448;18.824;2022-07-06T01:58:01;98037.78;;;16.01;77.98
67397;BME280;57728;50.448;18.824;2022-07-06T02:00:06;98043.84;;;15.98;78.23
67397;BME280;57728;50.448;18.824;2022-07-06T02:02:13;98052.34;;;15.96;78.60
67397;BME280;57728;50.448;18.824;2022-07-06T02:04:18;98049.44;;;15.93;77.77
67397;BME280;57728;50.448;18.824;2022-07-06T02:06:20;98048.13;;;15.82;77.88
67397;BME280;57728;50.448;18.824;2022-07-06T02:08:23;98032.28;;;15.75;78.29
67397;BME280;57728;50.448;18.824;2022-07-06T02:10:24;98039.28;;;15.67;78.87
67397;BME280;57728;50.448;18.824;2022-07-06T02:12:28;98033.06;;;15.67;79.08
67397;BME280;57728;50.448;18.824;2022-07-06T02:14:29;98032.41;;;15.70;79.85
67397;BME280;57728;50.448;18.824;2022-07-06T02:16:32;98034.31;;;15.69;79.46
67397;BME280;57728;50.448;18.824;2022-07-06T02:18:34;98034.69;;;15.76;79.46
67397;BME280;57728;50.448;18.824;2022-07-06T02:20:35;98026.38;;;15.82;79.76
67397;BME280;57728;50.448;18.824;2022-07-06T02:22:36;98029.59;;;15.84;78.58
67397;BME280;57728;50.448;18.824;2022-07-06T02:24:38;98028.47;;;15.85;78.97
67397;BME280;57728;50.448;18.824;2022-07-06T02:26:40;98029.09;;;15.82;78.45
67397;BME280;57728;50.448;18.824;2022-07-06T02:28:41;98032.44;;;15.78;78.61
67397;BME280;57728;50.448;18.824;2022-07-06T02:30:43;98030.03;;;15.77;78.32
67397;BME280;57728;50.448;18.824;2022-07-06T02:32:45;98031.16;;;15.76;78.80
67397;BME280;57728;50.448;18.824;2022-07-06T02:34:47;98031.97;;;15.76;78.51
67397;BME280;57728;50.448;18.824;2022-07-06T02:36:48;98035.16;;;15.78;78.23
67397;BME280;57728;50.448;18.824;2022-07-06T02:38:51;98031.34;;;15.80;78.00
67397;BME280;57728;50.448;18.824;2022-07-06T02:40:52;98030.84;;;15.77;77.93
67397;BME280;57728;50.448;18.824;2022-07-06T02:42:54;98033.38;;;15.74;78.27
67397;BME280;57728;50.448;18.824;2022-07-06T02:44:55;98031.78;;;15.73;77.86
67397;BME280;57728;50.448;18.824;2022-07-06T02:46:58;98027.31;;;15.68;78.26
67397;BME280;57728;50.448;18.824;2022-07-06T02:49:00;98022.50;;;15.65;77.92
67397;BME280;57728;50.448;18.824;2022-07-06T02:51:01;98023.75;;;15.59;77.76
67397;BME280;57728;50.448;18.824;2022-07-06T02:53:04;98019.56;;;15.53;77.89
67397;BME280;57728;50.448;18.824;2022-07-06T02:55:07;98028.50;;;15.53;77.93
67397;BME280;57728;50.448;18.824;2022-07-06T02:57:09;98037.44;;;15.54;77.77
67397;BME280;57728;50.448;18.824;2022-07-06T02:59:11;98032.34;;;15.52;77.88
67397;BME280;57728;50.448;18.824;2022-07-06T03:01:13;98035.69;;;15.49;77.47
67397;BME280;57728;50.448;18.824;2022-07-06T03:03:15;98040.13;;;15.45;77.74
67397;BME280;57728;50.448;18.824;2022-07-06T03:05:16;98034.34;;;15.38;77.79
67397;BME280;57728;50.448;18.824;2022-07-06T03:07:18;98031.47;;;15.35;77.67
67397;BME280;57728;50.448;18.824;2022-07-06T03:09:21;98033.34;;;15.34;78.32
67397;BME280;57728;50.448;18.824;2022-07-06T03:11:22;98031.94;;;15.37;77.90
67397;BME280;57728;50.448;18.824;2022-07-06T03:13:24;98035.47;;;15.37;77.61
67397;BME280;57728;50.448;18.824;2022-07-06T03:15:25;98038.19;;;15.37;77.83
67397;BME280;57728;50.448;18.824;2022-07-06T03:17:27;98038.19;;;15.37;77.67
67397;BME280;57728;50.448;18.824;2022-07-06T03:19:29;98046.03;;;15.39;77.92
67397;BME280;57728;50.448;18.824;2022-07-06T03:21:31;98041.06;;;15.41;77.62
67397;BME280;57728;50.448;18.824;2022-07-06T03:23:33;98035.31;;;15.42;77.47
67397;BME280;57728;50.448;18.824;2022-07-06T03:25:36;98044.16;;;15.48;77.57
67397;BME280;57728;50.448;18.824;2022-07-06T03:27:37;98043.22;;;15.52;77.59
67397;BME280;57728;50.448;18.824;2022-07-06T03:29:38;98042.59;;;15.56;77.18
67397;BME280;57728;50.448;18.824;2022-07-06T03:31:41;98038.44;;;15.58;77.18
67397;BME280;57728;50.448;18.824;2022-07-06T03:33:42;98042.13;;;15.62;76.93
67397;BME280;57728;50.448;18.824;2022-07-06T03:35:44;98041.50;;;15.65;76.74
67397;BME280;57728;50.448;18.824;2022-07-06T03:37:47;98052.06;;;15.67;76.22
67397;BME280;57728;50.448;18.824;2022-07-06T03:39:49;98046.13;;;15.65;76.33
67397;BME280;57728;50.448;18.824;2022-07-06T03:41:50;98055.09;;;15.65;76.53
67397;BME280;57728;50.448;18.824;2022-07-06T03:43:53;98063.22;;;15.65;76.66
67397;BME280;57728;50.448;18.824;2022-07-06T03:46:02;98068.00;;;15.60;76.90
67397;BME280;57728;50.448;18.824;2022-07-06T03:48:04;98066.72;;;15.57;76.99
67397;BME280;57728;50.448;18.824;2022-07-06T03:50:09;98075.97;;;15.56;76.80
67397;BME280;57728;50.448;18.824;2022-07-06T03:52:11;98075.66;;;15.58;77.19
67397;BME280;57728;50.448;18.824;2022-07-06T03:54:19;98088.63;;;15.61;77.18
67397;BME280;57728;50.448;18.824;2022-07-06T03:56:21;98083.97;;;15.61;76.57
67397;BME280;57728;50.448;18.824;2022-07-06T03:58:38;98089.72;;;15.60;76.92
67397;BME280;57728;50.448;18.824;2022-07-06T04:00:40;98090.16;;;15.53;76.68
67397;BME280;57728;50.448;18.824;2022-07-06T04:02:48;98089.63;;;15.42;76.86
67397;BME280;57728;50.448;18.824;2022-07-06T04:04:54;98095.19;;;15.37;77.33
67397;BME280;57728;50.448;18.824;2022-07-06T04:06:56;98089.09;;;15.32;77.80
67397;BME280;57728;50.448;18.824;2022-07-06T04:09:00;98084.13;;;15.34;78.27
67397;BME280;57728;50.448;18.824;2022-07-06T04:11:02;98084.66;;;15.36;77.75
67397;BME280;57728;50.448;18.824;2022-07-06T04:13:03;98084.03;;;15.39;77.69
67397;BME280;57728;50.448;18.824;2022-07-06T04:15:06;98084.84;;;15.39;77.50
67397;BME280;57728;50.448;18.824;2022-07-06T04:17:08;98088.63;;;15.38;77.45
67397;BME280;57728;50.448;18.824;2022-07-06T04:19:28;98085.13;;;15.38;77.08
67397;BME280;57728;50.448;18.824;2022-07-06T04:21:30;98085.44;;;15.36;77.09
67397;BME280;57728;50.448;18.824;2022-07-06T04:23:31;98094.72;;;15.35;76.76
67397;BME280;57728;50.448;18.824;2022-07-06T04:25:33;98090.38;;;15.34;77.07
67397;BME280;57728;50.448;18.824;2022-07-06T04:27:37;98088.97;;;15.37;76.99
67397;BME280;57728;50.448;18.824;2022-07-06T04:29:39;98093.16;;;15.43;76.93
67397;BME280;57728;50.448;18.824;2022-07-06T04:31:40;98097.47;;;15.44;76.81
67397;BME280;57728;50.448;18.824;2022-07-06T04:33:45;98100.97;;;15.44;76.77
67397;BME280;57728;50.448;18.824;2022-07-06T04:35:47;98098.13;;;15.49;76.94
67397;BME280;57728;50.448;18.824;2022-07-06T04:37:48;98100.59;;;15.60;76.72
67397;BME280;57728;50.448;18.824;2022-07-06T04:39:52;98102.22;;;15.69;76.91
67397;BME280;57728;50.448;18.824;2022-07-06T04:41:54;98109.94;;;15.76;76.62
67397;BME280;57728;50.448;18.824;2022-07-06T04:43:57;98105.78;;;15.78;76.29
67397;BME280;57728;50.448;18.824;2022-07-06T04:45:59;98104.38;;;15.81;76.41
67397;BME280;57728;50.448;18.824;2022-07-06T04:48:03;98112.38;;;15.86;76.62
67397;BME280;57728;50.448;18.824;2022-07-06T04:50:06;98102.97;;;15.92;76.24
67397;BME280;57728;50.448;18.824;2022-07-06T04:52:12;98104.91;;;15.92;75.59
67397;BME280;57728;50.448;18.824;2022-07-06T04:54:13;98092.56;;;15.86;76.23
67397;BME280;57728;50.448;18.824;2022-07-06T04:56:14;98094.28;;;15.82;76.20
67397;BME280;57728;50.448;18.824;2022-07-06T04:58:16;98096.72;;;15.83;76.44
67397;BME280;57728;50.448;18.824;2022-07-06T05:00:18;98093.69;;;15.85;76.58
67397;BME280;57728;50.448;18.824;2022-07-06T05:02:20;98098.78;;;15.86;76.46
67397;BME280;57728;50.448;18.824;2022-07-06T05:04:23;98095.16;;;15.91;76.67
67397;BME280;57728;50.448;18.824;2022-07-06T05:06:25;98092.16;;;16.01;75.68
67397;BME280;57728;50.448;18.824;2022-07-06T05:08:26;98096.34;;;16.07;75.46
67397;BME280;57728;50.448;18.824;2022-07-06T05:10:28;98084.00;;;16.10;75.41
67397;BME280;57728;50.448;18.824;2022-07-06T05:12:31;98090.91;;;16.16;75.41
67397;BME280;57728;50.448;18.824;2022-07-06T05:14:33;98082.63;;;16.21;75.16
67397;BME280;57728;50.448;18.824;2022-07-06T05:16:36;98090.34;;;16.28;75.07
67397;BME280;57728;50.448;18.824;2022-07-06T05:18:38;98097.84;;;16.31;75.04
67397;BME280;57728;50.448;18.824;2022-07-06T05:20:39;98106.34;;;16.38;75.15
67397;BME280;57728;50.448;18.824;2022-07-06T05:22:42;98101.75;;;16.47;74.95
67397;BME280;57728;50.448;18.824;2022-07-06T05:24:43;98103.53;;;16.60;75.08
67397;BME280;57728;50.448;18.824;2022-07-06T05:26:44;98107.56;;;16.71;74.14
67397;BME280;57728;50.448;18.824;2022-07-06T05:28:47;98108.50;;;16.84;73.73
67397;BME280;57728;50.448;18.824;2022-07-06T05:30:52;98106.25;;;16.86;72.93
67397;BME280;57728;50.448;18.824;2022-07-06T05:32:53;98106.75;;;16.88;72.85
67397;BME280;57728;50.448;18.824;2022-07-06T05:34:55;98102.56;;;16.91;72.42
67397;BME280;57728;50.448;18.824;2022-07-06T05:36:57;98118.59;;;16.92;72.52
67397;BME280;57728;50.448;18.824;2022-07-06T05:38:58;98121.78;;;17.03;72.11
67397;BME280;57728;50.448;18.824;2022-07-06T05:41:00;98122.59;;;17.12;71.91
67397;BME280;57728;50.448;18.824;2022-07-06T05:43:02;98122.13;;;17.10;71.79
67397;BME280;57728;50.448;18.824;2022-07-06T05:45:04;98120.50;;;17.09;71.92
67397;BME280;57728;50.448;18.824;2022-07-06T05:47:07;98120.69;;;17.04;72.20
67397;BME280;57728;50.448;18.824;2022-07-06T05:49:38;98128.06;;;17.04;72.09
67397;BME280;57728;50.448;18.824;2022-07-06T05:51:58;98137.66;;;17.10;72.23
67397;BME280;57728;50.448;18.824;2022-07-06T05:54:00;98138.94;;;17.04;71.91
67397;BME280;57728;50.448;18.824;2022-07-06T05:56:02;98148.22;;;16.94;72.29
67397;BME280;57728;50.448;18.824;2022-07-06T05:58:06;98161.00;;;16.85;72.49
67397;BME280;57728;50.448;18.824;2022-07-06T06:00:10;98175.88;;;16.79;72.79
67397;BME280;57728;50.448;18.824;2022-07-06T06:02:16;98175.69;;;16.66;73.57
67397;BME280;57728;50.448;18.824;2022-07-06T06:04:18;98174.25;;;16.60;73.61
67397;BME280;57728;50.448;18.824;2022-07-06T06:06:20;98168.97;;;16.55;74.56
67397;BME280;57728;50.448;18.824;2022-07-06T06:08:24;98167.16;;;16.50;74.86
67397;BME280;57728;50.448;18.824;2022-07-06T06:10:27;98166.06;;;16.52;75.10
67397;BME280;57728;50.448;18.824;2022-07-06T06:12:32;98178.03;;;16.50;74.42
67397;BME280;57728;50.448;18.824;2022-07-06T06:14:34;98170.84;;;16.46;74.66
67397;BME280;57728;50.448;18.824;2022-07-06T06:16:36;98179.78;;;16.38;74.92
67397;BME280;57728;50.448;18.824;2022-07-06T06:18:38;98170.47;;;16.30;74.81
67397;BME280;57728;50.448;18.824;2022-07-06T06:20:40;98177.38;;;16.36;75.58
67397;BME280;57728;50.448;18.824;2022-07-06T06:23:07;98183.19;;;16.52;74.79
67397;BME280;57728;50.448;18.824;2022-07-06T06:25:09;98172.94;;;16.49;74.73
67397;BME280;57728;50.448;18.824;2022-07-06T06:27:10;98180.16;;;16.54;75.10
67397;BME280;57728;50.448;18.824;2022-07-06T06:29:12;98174.06;;;16.57;74.73
67397;BME280;57728;50.448;18.824;2022-07-06T06:31:14;98179.19;;;16.58;74.53
67397;BME280;57728;50.448;18.824;2022-07-06T06:33:18;98184.97;;;16.57;75.21
67397;BME280;57728;50.448;18.824;2022-07-06T06:35:21;98185.94;;;16.61;74.88
67397;BME280;57728;50.448;18.824;2022-07-06T06:37:23;98179.88;;;16.64;74.99
67397;BME280;57728;50.448;18.824;2022-07-06T06:39:24;98185.94;;;16.69;74.42
67397;BME280;57728;50.448;18.824;2022-07-06T06:41:28;98186.28;;;16.77;74.20
67397;BME280;57728;50.448;18.824;2022-07-06T06:43:30;98190.78;;;16.81;73.85
67397;BME280;57728;50.448;18.824;2022-07-06T06:45:41;98193.50;;;16.81;73.25
67397;BME280;57728;50.448;18.824;2022-07-06T06:47:42;98192.88;;;16.84;73.22
67397;BME280;57728;50.448;18.824;2022-07-06T06:49:44;98199.56;;;16.87;72.64
67397;BME280;57728;50.448;18.824;2022-07-06T06:51:45;98205.19;;;16.90;70.92
67397;BME280;57728;50.448;18.824;2022-07-06T06:53:46;98203.25;;;16.73;70.58
67397;BME280;57728;50.448;18.824;2022-07-06T06:55:49;98206.28;;;16.63;71.02
67397;BME280;57728;50.448;18.824;2022-07-06T06:57:50;98197.25;;;16.54;71.03
67397;BME280;57728;50.448;18.824;2022-07-06T06:59:52;98210.38;;;16.52;71.37
67397;BME280;57728;50.448;18.824;2022-07-06T07:01:54;98216.13;;;16.50;71.11
67397;BME280;57728;50.448;18.824;2022-07-06T07:03:56;98214.34;;;16.46;71.37
67397;BME280;57728;50.448;18.824;2022-07-06T07:05:57;98211.78;;;16.41;71.74
67397;BME280;57728;50.448;18.824;2022-07-06T07:07:59;98215.16;;;16.46;71.95
67397;BME280;57728;50.448;18.824;2022-07-06T07:10:01;98209.75;;;16.55;71.55
67397;BME280;57728;50.448;18.824;2022-07-06T07:12:04;98200.81;;;16.63;71.14
67397;BME280;57728;50.448;18.824;2022-07-06T07:14:06;98211.84;;;16.67;71.37
67397;BME280;57728;50.448;18.824;2022-07-06T07:16:08;98208.03;;;16.68;70.99
67397;BME280;57728;50.448;18.824;2022-07-06T07:18:09;98215.41;;;16.67;70.65
67397;BME280;57728;50.448;18.824;2022-07-06T07:20:12;98213.78;;;16.66;70.66
67397;BME280;57728;50.448;18.824;2022-07-06T07:22:13;98216.03;;;16.64;70.62
67397;BME280;57728;50.448;18.824;2022-07-06T07:24:14;98218.41;;;16.66;70.20
67397;BME280;57728;50.448;18.824;2022-07-06T07:26:16;98213.00;;;16.74;70.46
67397;BME280;57728;50.448;18.824;2022-07-06T07:28:18;98215.59;;;16.88;69.55
67397;BME280;57728;50.448;18.824;2022-07-06T07:30:19;98209.38;;;16.96;68.68
67397;BME280;57728;50.448;18.824;2022-07-06T07:32:21;98215.78;;;16.92;68.90
67397;BME280;57728;50.448;18.824;2022-07-06T07:34:22;98214.16;;;16.91;69.65
67397;BME280;57728;50.448;18.824;2022-07-06T07:36:24;98221.84;;;16.89;69.48
67397;BME280;57728;50.448;18.824;2022-07-06T07:38:26;98220.06;;;16.75;68.63
67397;BME280;57728;50.448;18.824;2022-07-06T07:40:27;98220.16;;;16.62;69.22
67397;BME280;57728;50.448;18.824;2022-07-06T07:42:29;98222.22;;;16.47;69.60
67397;BME280;57728;50.448;18.824;2022-07-06T07:44:31;98219.16;;;16.49;69.40
67397;BME280;57728;50.448;18.824;2022-07-06T07:46:32;98203.03;;;16.53;68.38
67397;BME280;57728;50.448;18.824;2022-07-06T07:48:33;98206.59;;;16.70;68.52
67397;BME280;57728;50.448;18.824;2022-07-06T07:50:37;98213.38;;;16.99;68.21
67397;BME280;57728;50.448;18.824;2022-07-06T07:52:38;98214.22;;;17.17;65.87
67397;BME280;57728;50.448;18.824;2022-07-06T07:54:39;98220.66;;;17.21;66.11
67397;BME280;57728;50.448;18.824;2022-07-06T07:56:41;98216.75;;;17.13;65.71
67397;BME280;57728;50.448;18.824;2022-07-06T07:58:42;98215.78;;;17.09;66.08
67397;BME280;57728;50.448;18.824;2022-07-06T08:00:45;98207.13;;;17.07;65.83
67397;BME280;57728;50.448;18.824;2022-07-06T08:02:47;98215.78;;;17.09;66.01
67397;BME280;57728;50.448;18.824;2022-07-06T08:04:49;98223.34;;;17.12;66.70
67397;BME280;57728;50.448;18.824;2022-07-06T08:06:50;98216.75;;;17.13;65.42
67397;BME280;57728;50.448;18.824;2022-07-06T08:08:52;98220.28;;;17.14;65.71
67397;BME280;57728;50.448;18.824;2022-07-06T08:10:53;98225.72;;;17.14;65.56
67397;BME280;57728;50.448;18.824;2022-07-06T08:12:55;98219.81;;;17.12;65.99
67397;BME280;57728;50.448;18.824;2022-07-06T08:14:56;98208.59;;;17.05;65.64
67397;BME280;57728;50.448;18.824;2022-07-06T08:16:58;98210.50;;;17.04;66.50
67397;BME280;57728;50.448;18.824;2022-07-06T08:18:59;98201.69;;;16.98;65.21
67397;BME280;57728;50.448;18.824;2022-07-06T08:21:01;98212.91;;;16.97;65.79
67397;BME280;57728;50.448;18.824;2022-07-06T08:23:03;98207.91;;;16.99;65.57
67397;BME280;57728;50.448;18.824;2022-07-06T08:25:05;98205.19;;;16.82;65.06
67397;BME280;57728;50.448;18.824;2022-07-06T08:27:07;98205.00;;;16.69;66.21
67397;BME280;57728;50.448;18.824;2022-07-06T08:29:09;98204.03;;;16.65;66.68
67397;BME280;57728;50.448;18.824;2022-07-06T08:31:10;98193.44;;;16.55;66.12
67397;BME280;57728;50.448;18.824;2022-07-06T08:33:14;98201.44;;;16.52;67.42
67397;BME280;57728;50.448;18.824;2022-07-06T08:35:15;98199.34;;;16.48;67.11
67397;BME280;57728;50.448;18.824;2022-07-06T08:37:16;98197.75;;;16.47;67.24
67397;BME280;57728;50.448;18.824;2022-07-06T08:39:18;98197.56;;;16.44;67.27
67397;BME280;57728;50.448;18.824;2022-07-06T08:41:22;98194.34;;;16.42;67.20
67397;BME280;57728;50.448;18.824;2022-07-06T08:43:26;98190.81;;;16.41;67.22
67397;BME280;57728;50.448;18.824;2022-07-06T08:45:29;98191.94;;;16.40;67.50
67397;BME280;57728;50.448;18.824;2022-07-06T08:47:32;98197.53;;;16.35;67.07
67397;BME280;57728;50.448;18.824;2022-07-06T08:49:37;98194.47;;;16.28;67.12
67397;BME280;57728;50.448;18.824;2022-07-06T08:51:40;98195.25;;;16.29;67.34
67397;BME280;57728;50.448;18.824;2022-07-06T08:53:44;98200.88;;;16.32;66.88
67397;BME280;57728;50.448;18.824;2022-07-06T08:55:48;98203.78;;;16.36;66.86
67397;BME280;57728;50.448;18.824;2022-07-06T08:57:52;98198.81;;;16.46;67.32
67397;BME280;57728;50.448;18.824;2022-07-06T08:59:55;98194.25;;;16.56;67.67
67397;BME280;57728;50.448;18.824;2022-07-06T09:01:57;98202.09;;;16.66;67.22
67397;BME280;57728;50.448;18.824;2022-07-06T09:04:06;98204.53;;;16.76;66.25
67397;BME280;57728;50.448;18.824;2022-07-06T09:06:10;98205.34;;;16.85;65.61
67397;BME280;57728;50.448;18.824;2022-07-06T09:08:14;98212.56;;;16.90;65.29
67397;BME280;57728;50.448;18.824;2022-07-06T09:10:18;98211.94;;;17.02;65.73
67397;BME280;57728;50.448;18.824;2022-07-06T09:12:21;98211.06;;;17.23;64.59
67397;BME280;57728;50.448;18.824;2022-07-06T09:14:23;98216.66;;;17.44;64.01
67397;BME280;57728;50.448;18.824;2022-07-06T09:16:27;98217.94;;;17.64;62.50
67397;BME280;57728;50.448;18.824;2022-07-06T09:18:30;98214.84;;;17.83;62.93
67397;BME280;57728;50.448;18.824;2022-07-06T09:20:33;98217.38;;;17.97;62.20
67397;BME280;57728;50.448;18.824;2022-07-06T09:22:37;98207.91;;;18.03;61.44
67397;BME280;57728;50.448;18.824;2022-07-06T09:24:41;98205.81;;;18.17;61.46
67397;BME280;57728;50.448;18.824;2022-07-06T09:26:44;98208.66;;;18.30;61.15
67397;BME280;57728;50.448;18.824;2022-07-06T09:28:49;98200.59;;;18.42;60.88
67397;BME280;57728;50.448;18.824;2022-07-06T09:30:54;98204.66;;;18.65;60.06
67397;BME280;57728;50.448;18.824;2022-07-06T09:32:57;98201.88;;;18.74;59.20
67397;BME280;57728;50.448;18.824;2022-07-06T09:35:00;98209.81;;;18.88;59.59
67397;BME280;57728;50.448;18.824;2022-07-06T09:37:03;98213.31;;;18.97;59.13
67397;BME280;57728;50.448;18.824;2022-07-06T09:39:27;98208.81;;;19.01;59.11
67397;BME280;57728;50.448;18.824;2022-07-06T09:41:32;98203.63;;;19.08;59.35
67397;BME280;57728;50.448;18.824;2022-07-06T09:43:34;98213.41;;;19.09;59.12
67397;BME280;57728;50.448;18.824;2022-07-06T09:45:36;98206.81;;;19.10;59.83
67397;BME280;57728;50.448;18.824;2022-07-06T09:47:46;98209.34;;;19.15;59.79
67397;BME280;57728;50.448;18.824;2022-07-06T09:49:48;98206.22;;;19.26;59.64
67397;BME280;57728;50.448;18.824;2022-07-06T09:51:57;98201.56;;;19.26;59.31
67397;BME280;57728;50.448;18.824;2022-07-06T09:54:05;98204.28;;;19.47;58.54
67397;BME280;57728;50.448;18.824;2022-07-06T09:56:10;98202.88;;;19.62;58.32
67397;BME280;57728;50.448;18.824;2022-07-06T09:58:19;98206.31;;;19.71;57.74
67397;BME280;57728;50.448;18.824;2022-07-06T10:00:22;98207.66;;;19.86;57.67
67397;BME280;57728;50.448;18.824;2022-07-06T10:02:24;98205.53;;;20.04;56.54
67397;BME280;57728;50.448;18.824;2022-07-06T10:04:29;98211.75;;;20.25;55.91
67397;BME280;57728;50.448;18.824;2022-07-06T10:06:33;98205.84;;;20.72;56.58
67397;BME280;57728;50.448;18.824;2022-07-06T10:08:36;98202.72;;;21.10;54.51
67397;BME280;57728;50.448;18.824;2022-07-06T10:10:41;98205.41;;;21.35;53.85
67397;BME280;57728;50.448;18.824;2022-07-06T10:12:46;98204.72;;;21.50;53.93
67397;BME280;57728;50.448;18.824;2022-07-06T10:14:51;98213.78;;;21.67;52.07
67397;BME280;57728;50.448;18.824;2022-07-06T10:16:55;98212.09;;;21.62;51.04
67397;BME280;57728;50.448;18.824;2022-07-06T10:19:02;98216.16;;;21.96;52.20
67397;BME280;57728;50.448;18.824;2022-07-06T10:21:06;98211.72;;;22.35;50.55
67397;BME280;57728;50.448;18.824;2022-07-06T10:23:08;98217.72;;;22.57;49.04
67397;BME280;57728;50.448;18.824;2022-07-06T10:25:11;98218.63;;;22.61;48.34
67397;BME280;57728;50.448;18.824;2022-07-06T10:27:14;98217.03;;;22.60;48.19
67397;BME280;57728;50.448;18.824;2022-07-06T10:29:18;98216.84;;;22.69;48.68
67397;BME280;57728;50.448;18.824;2022-07-06T10:31:22;98205.06;;;23.19;48.60
67397;BME280;57728;50.448;18.824;2022-07-06T10:33:27;98201.03;;;23.91;45.97
67397;BME280;57728;50.448;18.824;2022-07-06T10:35:28;98196.84;;;24.20;45.33
67397;BME280;57728;50.448;18.824;2022-07-06T10:37:31;98199.81;;;24.30;43.74
67397;BME280;57728;50.448;18.824;2022-07-06T10:39:35;98201.56;;;24.19;44.65
67397;BME280;57728;50.448;18.824;2022-07-06T10:41:56;98191.50;;;24.76;43.51
67397;BME280;57728;50.448;18.824;2022-07-06T10:44:18;98197.34;;;24.71;43.50